createdAt,value
2019-01-17T05:48:43.949Z,5.10
2019-01-17T10:47:52.663Z,6.87
2019-01-17T11:07:51.018Z,5.70
2019-01-17T11:10:17.696Z,5.83
2019-01-17T11:12:44.426Z,4.67
2019-01-17T11:15:11.075Z,6.57
2019-01-17T11:17:37.693Z,6.27
2019-01-17T11:20:04.562Z,5.83
2019-01-17T11:22:31.626Z,6.07
2019-01-17T11:24:58.570Z,4.87
2019-01-17T11:27:25.911Z,5.50
2019-01-17T11:29:52.662Z,5.83
2019-01-17T11:32:19.664Z,5.57
2019-01-17T11:34:46.564Z,5.60
2019-01-17T11:37:13.252Z,6.17
2019-01-17T11:39:39.842Z,5.50
2019-01-17T11:42:06.605Z,5.10
2019-01-17T11:44:33.273Z,6.03
2019-01-17T11:47:00.182Z,5.53
2019-01-17T11:49:26.816Z,5.47
2019-01-17T11:51:53.477Z,5.10
2019-01-17T11:54:20.146Z,6.50
2019-01-17T11:56:46.856Z,6.10
2019-01-17T11:59:13.573Z,5.77
2019-01-17T12:01:40.205Z,6.33
2019-01-17T12:04:07.151Z,4.47
2019-01-17T12:06:34.215Z,5.20
2019-01-17T12:09:01.281Z,4.60
2019-01-17T12:11:28.014Z,4.70
2019-01-17T12:13:56.325Z,5.20
2019-01-17T12:16:22.986Z,4.90
2019-01-17T12:18:49.936Z,4.17
2019-01-17T12:21:16.922Z,5.13
2019-01-17T12:23:43.623Z,5.40
2019-01-17T12:26:10.312Z,4.22
2019-01-17T12:28:37.102Z,5.23
2019-01-17T12:31:04.345Z,5.33
2019-01-17T12:33:31.111Z,4.80
2019-01-17T12:35:58.412Z,4.80
2019-01-17T12:38:26.470Z,4.62
2019-01-17T12:40:53.215Z,5.73
2019-01-17T12:43:20.232Z,5.30
2019-01-17T12:45:47.239Z,4.90
2019-01-17T12:48:14.451Z,4.90
2019-01-17T12:50:41.396Z,4.07
2019-01-17T12:53:08.444Z,3.95
2019-01-17T12:55:35.371Z,3.75
2019-01-17T12:58:02.273Z,4.72
2019-01-17T13:00:29.223Z,3.90
2019-01-17T13:02:56.574Z,4.28
2019-01-17T13:05:23.254Z,3.63
2019-01-17T13:07:49.906Z,3.77
2019-01-17T13:10:16.537Z,3.90
2019-01-17T13:12:43.431Z,3.67
2019-01-17T13:15:10.591Z,3.87
2019-01-17T13:17:37.765Z,3.57
2019-01-17T13:20:05.293Z,3.72
2019-01-17T13:22:32.255Z,4.33
2019-01-17T13:24:58.859Z,5.00
2019-01-17T13:27:26.969Z,3.87
2019-01-17T13:29:53.613Z,3.80
2019-01-17T13:32:20.273Z,3.93
2019-01-17T13:34:46.911Z,3.20
2019-01-17T13:37:13.663Z,4.40
2019-01-17T13:39:40.272Z,5.10
2019-01-17T13:42:07.136Z,5.45
2019-01-17T13:44:34.065Z,4.63
2019-01-17T13:47:01.077Z,4.25
2019-01-17T13:49:28.048Z,4.73
2019-01-17T13:51:54.847Z,4.93
2019-01-17T13:54:21.463Z,5.30
2019-01-17T13:56:48.102Z,5.40
2019-01-17T13:59:15.244Z,5.92
2019-01-17T14:01:42.200Z,5.33
2019-01-17T14:04:09.268Z,5.30
2019-01-17T14:06:36.178Z,5.37
2019-01-17T14:09:03.404Z,5.00
2019-01-17T14:11:30.200Z,5.37
2019-01-17T14:13:57.530Z,5.53
2019-01-17T14:16:24.143Z,6.43
2019-01-17T14:18:50.768Z,5.73
2019-01-17T14:21:17.427Z,6.73
2019-01-17T14:23:44.485Z,6.15
2019-01-17T14:26:12.299Z,5.70
2019-01-17T14:28:39.199Z,5.55
2019-01-17T14:31:05.826Z,5.65
2019-01-17T14:33:32.815Z,6.00
2019-01-17T14:35:59.605Z,5.30
2019-01-17T14:38:28.135Z,6.42
2019-01-17T14:40:54.824Z,5.60
2019-01-17T14:43:21.538Z,6.30
2019-01-17T14:45:49.369Z,6.50
2019-01-17T14:48:16.051Z,6.67
2019-01-17T14:50:42.673Z,5.80
2019-01-17T14:53:09.885Z,6.72
2019-01-17T14:55:36.859Z,6.67
2019-01-17T14:58:03.859Z,7.90
2019-01-17T15:00:30.581Z,9.83
2019-01-17T15:02:57.966Z,8.53
2019-01-17T15:05:24.751Z,9.47
2019-01-17T15:07:51.639Z,7.37
2019-01-17T15:10:18.708Z,6.17
2019-01-17T15:12:45.330Z,7.33
2019-01-17T15:15:12.082Z,8.87
2019-01-17T15:17:38.837Z,9.90
2019-01-17T15:20:05.757Z,10.00
2019-01-17T15:22:32.373Z,8.40
2019-01-17T15:24:59.143Z,8.07
2019-01-17T15:27:27.408Z,7.83
2019-01-17T15:29:54.235Z,9.13
2019-01-17T15:32:20.955Z,8.63
2019-01-17T15:34:47.901Z,8.57
2019-01-17T15:37:14.643Z,9.07
2019-01-17T15:39:41.297Z,8.53
2019-01-17T15:42:07.924Z,9.50
2019-01-17T15:44:34.577Z,10.13
2019-01-17T15:47:01.243Z,9.40
2019-01-17T15:49:28.400Z,8.20
2019-01-17T15:51:55.155Z,8.57
2019-01-17T15:54:22.098Z,8.90
2019-01-17T15:56:49.046Z,8.67
2019-01-17T15:59:15.682Z,9.07
2019-01-17T16:01:42.442Z,9.10
2019-01-17T16:04:09.045Z,8.83
2019-01-17T16:06:36.277Z,8.58
2019-01-17T16:09:03.140Z,7.73
2019-01-17T16:11:30.154Z,7.78
2019-01-17T16:13:58.506Z,7.40
2019-01-17T16:16:25.300Z,7.40
2019-01-17T16:18:52.254Z,7.20
2019-01-17T16:21:19.189Z,6.83
2019-01-17T16:23:46.197Z,7.10
2019-01-17T16:26:12.864Z,7.43
2019-01-17T16:28:39.533Z,7.30
2019-01-17T16:31:06.806Z,8.40
2019-01-17T16:33:33.434Z,8.73
2019-01-17T16:36:00.332Z,10.13
2019-01-17T16:38:28.725Z,9.22
2019-01-17T16:40:55.340Z,9.37
2019-01-17T16:43:22.026Z,10.93
2019-01-17T16:45:48.644Z,11.17
2019-01-17T16:48:15.449Z,10.10
2019-01-17T16:50:42.604Z,10.00
2019-01-17T16:53:09.471Z,10.40
2019-01-17T16:55:36.627Z,10.15
2019-01-17T16:58:03.486Z,9.73
2019-01-17T17:00:30.115Z,11.27
2019-01-17T17:02:56.746Z,10.97
2019-01-17T17:05:23.624Z,11.03
2019-01-17T17:07:50.874Z,10.83
2019-01-17T17:10:17.654Z,11.03
2019-01-17T17:12:44.555Z,11.15
2019-01-17T17:15:11.194Z,12.50
2019-01-17T17:17:37.805Z,10.83
2019-01-17T17:20:04.878Z,11.43
2019-01-17T17:22:31.695Z,12.87
2019-01-17T17:24:59.120Z,11.22
2019-01-17T17:27:25.749Z,12.77
2019-01-17T17:29:52.385Z,10.27
2019-01-17T17:32:19.012Z,12.33
2019-01-17T17:34:45.833Z,11.27
2019-01-17T17:37:12.538Z,12.27
2019-01-17T17:39:39.144Z,12.90
2019-01-17T17:42:06.020Z,11.40
2019-01-17T17:44:33.217Z,10.90
2019-01-17T17:46:59.966Z,11.23
2019-01-17T17:49:26.884Z,10.32
2019-01-17T17:51:53.580Z,10.57
2019-01-17T17:54:20.181Z,11.10
2019-01-17T17:56:47.002Z,9.38
2019-01-17T17:59:14.765Z,10.10
2019-01-17T18:01:41.404Z,10.63
2019-01-17T18:04:08.106Z,10.70
2019-01-17T18:06:34.749Z,10.63
2019-01-17T18:09:01.374Z,10.83
2019-01-17T18:11:29.447Z,11.60
2019-01-17T18:13:56.172Z,13.07
2019-01-17T18:16:22.885Z,13.10
2019-01-17T18:18:49.525Z,14.73
2019-01-17T18:21:16.228Z,17.30
2019-01-17T18:23:43.097Z,18.82
2019-01-17T18:26:09.740Z,17.98
2019-01-17T18:28:36.416Z,17.77
2019-01-17T18:31:03.599Z,16.12
2019-01-17T18:33:30.342Z,17.93
2019-01-17T18:35:57.244Z,12.93
2019-01-17T18:38:23.868Z,15.13
2019-01-17T18:40:50.436Z,13.83
2019-01-17T18:43:17.365Z,14.93
2019-01-17T18:45:43.992Z,14.13
2019-01-17T18:48:10.605Z,12.87
2019-01-17T18:50:37.811Z,14.47
2019-01-17T18:53:04.659Z,13.47
2019-01-17T18:55:31.559Z,12.20
2019-01-17T18:57:59.930Z,15.82
2019-01-17T19:00:26.630Z,14.03
2019-01-17T19:02:53.624Z,12.95
2019-01-17T19:05:20.253Z,11.57
2019-01-17T19:07:46.889Z,11.07
2019-01-17T19:10:13.655Z,11.23
2019-01-17T19:12:40.283Z,11.17
2019-01-17T19:15:06.933Z,10.93
2019-01-17T19:17:33.690Z,9.73
2019-01-17T19:20:00.335Z,11.90
2019-01-17T19:22:26.963Z,13.67
2019-01-17T19:24:53.991Z,12.07
2019-01-17T19:27:21.869Z,12.57
2019-01-17T19:29:48.494Z,11.97
2019-01-17T19:32:15.152Z,12.03
2019-01-17T19:34:41.882Z,13.20
2019-01-17T19:37:08.492Z,13.30
2019-01-17T19:39:35.151Z,14.13
2019-01-17T19:42:02.091Z,12.60
2019-01-17T19:44:30.212Z,14.80
2019-01-17T19:46:57.036Z,13.67
2019-01-17T19:49:23.948Z,13.85
2019-01-17T19:51:50.552Z,12.53
2019-01-17T19:54:17.167Z,12.13
2019-01-17T19:56:44.108Z,10.37
2019-01-17T19:59:10.995Z,12.05
2019-01-17T20:01:37.710Z,10.43
2019-01-17T20:04:07.617Z,10.72
2019-01-17T20:06:34.289Z,10.82
2019-01-17T20:09:01.091Z,9.07
2019-01-17T20:11:27.750Z,10.93
2019-01-17T20:13:54.421Z,11.30
2019-01-17T20:16:21.193Z,9.53
2019-01-17T20:18:47.982Z,9.73
2019-01-17T20:21:14.610Z,9.50
2019-01-17T20:23:41.372Z,11.63
2019-01-17T20:26:07.998Z,11.83
2019-01-17T20:28:35.812Z,12.25
2019-01-17T20:31:03.870Z,12.83
2019-01-17T20:33:30.933Z,12.33
2019-01-17T20:35:57.524Z,12.43
2019-01-17T20:38:24.433Z,11.73
2019-01-17T20:40:51.039Z,11.43
2019-01-17T20:43:17.992Z,11.40
2019-01-17T20:45:44.633Z,11.37
2019-01-17T20:48:12.326Z,12.75
2019-01-17T20:50:39.130Z,11.70
2019-01-17T20:53:05.719Z,12.50
2019-01-17T20:55:32.646Z,11.73
2019-01-17T20:58:01.035Z,13.14
2019-01-17T21:00:27.751Z,11.30
2019-01-17T21:02:54.790Z,13.32
2019-01-17T21:05:21.762Z,12.73
2019-01-17T21:07:48.693Z,12.88
2019-01-17T21:10:15.292Z,12.80
2019-01-17T21:12:42.274Z,11.90
2019-01-17T21:15:09.145Z,11.08
2019-01-17T21:20:22.646Z,11.20
2019-01-17T21:22:52.794Z,10.63
2019-01-17T21:25:23.229Z,10.83
2019-01-17T21:27:55.618Z,10.90
2019-01-17T21:33:12.540Z,11.95
2019-01-17T21:35:39.146Z,11.90
2019-01-17T21:38:11.396Z,10.70
2019-01-17T21:40:40.038Z,10.87
2019-01-17T21:43:11.868Z,9.58
2019-01-17T21:45:42.763Z,10.47
2019-01-17T21:48:10.042Z,13.75
2019-01-17T21:50:40.707Z,13.08
2019-01-17T21:53:10.529Z,11.95
2019-01-17T21:55:38.039Z,12.08
2019-01-17T22:13:06.297Z,11.00
2019-01-17T22:15:32.932Z,13.87
2019-01-17T22:17:59.795Z,10.70
2019-01-17T22:20:26.414Z,11.97
2019-01-17T22:22:53.019Z,9.67
2019-01-17T22:25:19.635Z,10.70
2019-01-17T22:27:46.386Z,9.67
2019-01-17T22:30:13.130Z,8.43
2019-01-17T22:32:39.851Z,7.87
2019-01-17T22:35:06.471Z,7.07
2019-01-17T22:37:33.262Z,9.33
2019-01-17T22:40:00.518Z,9.90
2019-01-17T22:42:27.135Z,9.48
2019-01-17T22:44:54.033Z,9.98
2019-01-17T22:47:20.640Z,8.57
2019-01-17T22:49:47.299Z,5.30
2019-01-17T22:52:13.895Z,3.90
2019-01-17T22:54:40.700Z,2.67
2019-01-17T22:57:09.093Z,2.00
2019-01-17T22:59:35.768Z,3.10
2019-01-17T23:02:02.420Z,4.90
2019-01-17T23:04:29.080Z,3.70
2019-01-17T23:06:55.979Z,3.70
2019-01-17T23:09:22.882Z,4.63
2019-01-17T23:11:49.607Z,4.47
2019-01-17T23:14:16.227Z,4.23
2019-01-17T23:16:43.036Z,4.20
2019-01-17T23:19:09.951Z,3.20
2019-01-17T23:21:36.543Z,3.50
2019-01-17T23:24:03.126Z,3.00
2019-01-17T23:26:30.108Z,2.90
2019-01-17T23:28:57.304Z,2.72
2019-01-17T23:31:24.134Z,1.73
2019-01-17T23:33:51.321Z,1.40
2019-01-17T23:36:18.193Z,1.50
2019-01-17T23:38:45.434Z,1.90
2019-01-17T23:41:12.128Z,2.13
2019-01-17T23:43:39.597Z,1.20
2019-01-17T23:46:06.230Z,1.10
2019-01-17T23:48:33.125Z,1.40
2019-01-17T23:50:59.734Z,1.20
2019-01-17T23:53:26.600Z,1.10
2019-01-17T23:55:53.286Z,1.30
2019-01-17T23:58:19.916Z,1.60
